Time;durP1;ratioP1;P1;durP2;ratioP2;P2;SDS_P1;SDS_P2;PMS_P1;PMS_P2;Temp;Humidity;BMP_temperature;BMP_pressure;BME280_temperature;BME280_humidity;BME280_pressure;Samples;Min_cycle;Max_cycle;Signal;HPM_P1;HPM_P2
2021/08/20 00:01:05;;;;;;;2.33;1.79;;;;;;;21.68;71.43;100412.78;;;;-51
2021/08/20 00:04:06;;;;;;;2.03;1.79;;;;;;;21.68;71.46;100412.12;;;;-67
2021/08/20 00:07:05;;;;;;;2.23;1.63;;;;;;;21.68;71.44;100411.89;;;;-66
2021/08/20 00:10:05;;;;;;;2.37;1.92;;;;;;;21.67;71.48;100410.67;;;;-67
2021/08/20 00:13:06;;;;;;;2.09;1.63;;;;;;;21.67;71.47;100408.88;;;;-55
2021/08/20 00:16:06;;;;;;;2.45;1.73;;;;;;;21.66;71.49;100412.05;;;;-66
2021/08/20 00:19:06;;;;;;;2.39;1.81;;;;;;;21.66;71.48;100406.19;;;;-66
2021/08/20 00:22:05;;;;;;;2.15;1.71;;;;;;;21.66;71.48;100406.27;;;;-67
2021/08/20 00:25:06;;;;;;;1.81;1.69;;;;;;;21.66;71.46;100407.00;;;;-68
2021/08/20 00:28:06;;;;;;;2.59;1.90;;;;;;;21.65;71.44;100410.77;;;;-67
2021/08/20 00:31:05;;;;;;;2.50;1.65;;;;;;;21.65;71.51;100408.41;;;;-65
2021/08/20 00:34:05;;;;;;;1.84;1.65;;;;;;;21.64;71.50;100410.45;;;;-68
2021/08/20 00:37:05;;;;;;;2.51;1.80;;;;;;;21.64;71.47;100411.59;;;;-67
2021/08/20 00:40:05;;;;;;;2.25;1.77;;;;;;;21.63;71.53;100408.82;;;;-66
2021/08/20 00:43:05;;;;;;;1.91;1.71;;;;;;;21.63;71.49;100404.99;;;;-67
2021/08/20 00:46:07;;;;;;;2.17;1.85;;;;;;;21.62;71.49;100405.08;;;;-67
2021/08/20 00:49:06;;;;;;;1.87;1.66;;;;;;;21.62;71.55;100404.89;;;;-66
2021/08/20 00:52:05;;;;;;;1.70;1.60;;;;;;;21.62;71.49;100404.98;;;;-67
2021/08/20 00:55:06;;;;;;;2.53;1.83;;;;;;;21.62;71.52;100407.09;;;;-67
2021/08/20 00:58:05;;;;;;;2.02;1.73;;;;;;;21.62;71.50;100407.02;;;;-67
2021/08/20 01:01:06;;;;;;;1.90;1.70;;;;;;;21.60;71.50;100402.15;;;;-67
2021/08/20 01:04:06;;;;;;;1.83;1.73;;;;;;;21.60;71.55;100401.01;;;;-67
2021/08/20 01:07:05;;;;;;;1.89;1.67;;;;;;;21.60;71.52;100404.33;;;;-67
2021/08/20 01:10:05;;;;;;;1.91;1.71;;;;;;;21.60;71.51;100403.84;;;;-67
2021/08/20 01:13:05;;;;;;;1.81;1.55;;;;;;;21.59;71.51;100398.31;;;;-67
2021/08/20 01:16:05;;;;;;;2.41;1.67;;;;;;;21.59;71.52;100392.03;;;;-67
2021/08/20 01:19:06;;;;;;;1.86;1.70;;;;;;;21.59;71.56;100392.27;;;;-67
2021/08/20 01:22:06;;;;;;;1.86;1.71;;;;;;;21.58;71.54;100389.66;;;;-66
2021/08/20 01:25:05;;;;;;;1.83;1.63;;;;;;;21.58;71.55;100389.33;;;;-55
2021/08/20 01:28:06;;;;;;;1.90;1.58;;;;;;;21.58;71.54;100388.92;;;;-55
2021/08/20 01:31:05;;;;;;;1.72;1.60;;;;;;;21.57;71.52;100387.55;;;;-51
2021/08/20 01:34:06;;;;;;;2.06;1.79;;;;;;;21.57;71.58;100388.77;;;;-51
2021/08/20 01:37:05;;;;;;;1.76;1.65;;;;;;;21.58;71.59;100387.62;;;;-51
2021/08/20 01:40:05;;;;;;;1.70;1.60;;;;;;;21.57;71.60;100388.37;;;;-51
2021/08/20 01:43:05;;;;;;;1.84;1.68;;;;;;;21.56;71.57;100389.28;;;;-55
2021/08/20 01:46:05;;;;;;;2.81;1.61;;;;;;;21.56;71.58;100391.23;;;;-55
2021/08/20 01:49:07;;;;;;;1.78;1.63;;;;;;;21.56;71.59;100388.68;;;;-55
2021/08/20 01:52:05;;;;;;;1.85;1.67;;;;;;;21.56;71.58;100388.68;;;;-67
2021/08/20 01:55:05;;;;;;;1.93;1.69;;;;;;;21.55;71.58;100393.02;;;;-66
2021/08/20 01:58:06;;;;;;;2.55;1.71;;;;;;;21.55;71.56;100394.72;;;;-51
2021/08/20 02:01:06;;;;;;;2.00;1.79;;;;;;;21.56;71.56;100402.47;;;;-55
2021/08/20 02:04:05;;;;;;;2.14;1.77;;;;;;;21.55;71.57;100399.37;;;;-66
2021/08/20 02:07:06;;;;;;;1.76;1.64;;;;;;;21.55;71.62;100396.53;;;;-65
2021/08/20 02:10:06;;;;;;;1.99;1.65;;;;;;;21.54;71.57;100394.58;;;;-55
2021/08/20 02:13:05;;;;;;;1.73;1.63;;;;;;;21.54;71.60;100392.60;;;;-56
2021/08/20 02:16:06;;;;;;;1.91;1.79;;;;;;;21.54;71.61;100396.30;;;;-51
2021/08/20 02:19:06;;;;;;;1.73;1.61;;;;;;;21.54;71.58;100399.13;;;;-51
2021/08/20 02:22:05;;;;;;;1.61;1.51;;;;;;;21.53;71.56;100401.74;;;;-67
2021/08/20 02:25:05;;;;;;;1.93;1.60;;;;;;;21.54;71.56;100394.64;;;;-66
2021/08/20 02:28:05;;;;;;;2.39;1.70;;;;;;;21.54;71.61;100393.83;;;;-67
2021/08/20 02:31:06;;;;;;;1.83;1.53;;;;;;;21.52;71.56;100393.13;;;;-66
2021/08/20 02:34:05;;;;;;;1.73;1.60;;;;;;;21.53;71.58;100397.77;;;;-51
2021/08/20 02:37:05;;;;;;;1.70;1.60;;;;;;;21.52;71.64;100397.52;;;;-52
2021/08/20 02:40:05;;;;;;;1.72;1.60;;;;;;;21.53;71.60;100402.82;;;;-51
2021/08/20 02:43:06;;;;;;;1.69;1.59;;;;;;;21.52;71.63;100404.84;;;;-53
2021/08/20 02:46:05;;;;;;;1.70;1.60;;;;;;;21.52;71.64;100404.35;;;;-57
2021/08/20 02:49:05;;;;;;;1.68;1.57;;;;;;;21.51;71.61;100399.95;;;;-57
2021/08/20 02:52:05;;;;;;;1.62;1.50;;;;;;;21.52;71.60;100398.23;;;;-58
2021/08/20 02:55:05;;;;;;;1.85;1.52;;;;;;;21.51;71.60;100394.75;;;;-57
2021/08/20 02:58:06;;;;;;;1.61;1.51;;;;;;;21.51;71.62;100389.53;;;;-57
2021/08/20 03:01:05;;;;;;;1.73;1.63;;;;;;;21.51;71.59;100389.44;;;;-57
2021/08/20 03:04:05;;;;;;;1.81;1.67;;;;;;;21.51;71.61;100392.54;;;;-57
2021/08/20 03:07:06;;;;;;;1.70;1.60;;;;;;;21.50;71.60;100393.21;;;;-57
2021/08/20 03:10:05;;;;;;;1.71;1.60;;;;;;;21.50;71.61;100392.13;;;;-57
2021/08/20 03:13:05;;;;;;;1.87;1.53;;;;;;;21.49;71.58;100389.69;;;;-55
2021/08/20 03:16:05;;;;;;;1.70;1.60;;;;;;;21.49;71.61;100389.11;;;;-55
2021/08/20 03:19:05;;;;;;;1.71;1.57;;;;;;;21.49;71.65;100392.30;;;;-55
2021/08/20 03:22:05;;;;;;;1.67;1.57;;;;;;;21.49;71.62;100384.38;;;;-55
2021/08/20 03:25:05;;;;;;;1.58;1.48;;;;;;;21.49;71.58;100383.25;;;;-55
2021/08/20 03:28:07;;;;;;;1.72;1.60;;;;;;;21.49;71.63;100389.53;;;;-55
2021/08/20 03:31:05;;;;;;;1.89;1.60;;;;;;;21.48;71.62;100386.61;;;;-55
2021/08/20 03:34:06;;;;;;;2.42;1.63;;;;;;;21.48;71.60;100389.05;;;;-55
2021/08/20 03:37:05;;;;;;;1.69;1.57;;;;;;;21.48;71.61;100391.74;;;;-55
2021/08/20 03:40:05;;;;;;;1.79;1.57;;;;;;;21.48;71.60;100395.17;;;;-55
2021/08/20 03:43:06;;;;;;;1.75;1.61;;;;;;;21.48;71.59;100393.95;;;;-55
2021/08/20 03:46:09;;;;;;;1.69;1.59;;;;;;;21.48;71.61;100396.48;;;;-51
2021/08/20 03:49:06;;;;;;;1.59;1.43;;;;;;;21.47;71.63;100396.78;;;;-54
2021/08/20 03:52:05;;;;;;;1.61;1.51;;;;;;;21.47;71.65;100403.39;;;;-51
2021/08/20 03:55:05;;;;;;;1.70;1.60;;;;;;;21.47;71.64;100403.14;;;;-53
2021/08/20 03:58:06;;;;;;;1.69;1.59;;;;;;;21.46;71.62;100410.17;;;;-51
2021/08/20 04:01:05;;;;;;;1.66;1.56;;;;;;;21.47;71.64;100410.08;;;;-67
2021/08/20 04:04:05;;;;;;;1.55;1.44;;;;;;;21.47;71.63;100417.09;;;;-67
2021/08/20 04:07:05;;;;;;;1.60;1.50;;;;;;;21.47;71.61;100421.50;;;;-68
2021/08/20 04:10:05;;;;;;;1.55;1.45;;;;;;;21.46;71.66;100426.41;;;;-67
2021/08/20 04:13:05;;;;;;;1.60;1.50;;;;;;;21.46;71.65;100423.87;;;;-67
2021/08/20 04:16:06;;;;;;;1.86;1.60;;;;;;;21.46;71.66;100421.44;;;;-66
2021/08/20 04:19:05;;;;;;;1.77;1.58;;;;;;;21.46;71.65;100421.67;;;;-67
2021/08/20 04:22:05;;;;;;;1.86;1.53;;;;;;;21.45;71.65;100424.67;;;;-67
2021/08/20 04:25:05;;;;;;;2.02;1.60;;;;;;;21.45;71.64;100423.04;;;;-68
2021/08/20 04:28:05;;;;;;;1.66;1.53;;;;;;;21.45;71.66;100427.53;;;;-57
2021/08/20 04:31:05;;;;;;;1.52;1.42;;;;;;;21.45;71.62;100428.34;;;;-57
2021/08/20 04:34:05;;;;;;;2.56;1.60;;;;;;;21.45;71.64;100433.80;;;;-57
2021/08/20 04:37:05;;;;;;;1.76;1.57;;;;;;;21.45;71.65;100434.72;;;;-57
2021/08/20 04:40:06;;;;;;;1.56;1.46;;;;;;;21.45;71.63;100437.98;;;;-55
2021/08/20 04:43:05;;;;;;;2.27;1.61;;;;;;;21.45;71.71;100441.23;;;;-55
2021/08/20 04:46:05;;;;;;;1.61;1.51;;;;;;;21.44;71.65;100443.28;;;;-55
2021/08/20 04:49:05;;;;;;;2.00;1.69;;;;;;;21.44;71.66;100442.55;;;;-56
2021/08/20 04:52:05;;;;;;;1.61;1.51;;;;;;;21.44;71.67;100443.69;;;;-55
2021/08/20 04:55:06;;;;;;;1.62;1.52;;;;;;;21.43;71.67;100440.33;;;;-55
2021/08/20 04:58:05;;;;;;;1.57;1.47;;;;;;;21.43;71.65;100444.33;;;;-54
2021/08/20 05:01:05;;;;;;;1.50;1.40;;;;;;;21.43;71.66;100442.94;;;;-56
2021/08/20 05:04:05;;;;;;;1.60;1.50;;;;;;;21.44;71.67;100451.20;;;;-55
2021/08/20 05:07:05;;;;;;;1.68;1.58;;;;;;;21.43;71.68;100452.08;;;;-55
2021/08/20 05:10:09;;;;;;;1.60;1.50;;;;;;;21.44;71.66;100456.74;;;;-53
2021/08/20 05:13:06;;;;;;;1.63;1.53;;;;;;;21.43;71.67;100457.06;;;;-52
2021/08/20 05:16:05;;;;;;;1.60;1.50;;;;;;;21.42;71.68;100458.78;;;;-51
2021/08/20 05:19:06;;;;;;;1.67;1.57;;;;;;;21.43;71.70;100461.86;;;;-52
2021/08/20 05:22:07;;;;;;;3.57;2.13;;;;;;;21.41;73.06;100462.41;;;;-51
2021/08/20 05:25:05;;;;;;;3.45;2.55;;;;;;;21.40;72.80;100465.36;;;;-51
2021/08/20 05:28:05;;;;;;;4.35;2.73;;;;;;;21.37;72.99;100468.68;;;;-54
2021/08/20 05:31:06;;;;;;;4.20;2.79;;;;;;;21.36;73.21;100472.85;;;;-52
2021/08/20 05:34:06;;;;;;;3.25;2.86;;;;;;;21.36;73.31;100472.38;;;;-51
2021/08/20 05:37:05;;;;;;;3.36;3.06;;;;;;;21.35;73.40;100474.64;;;;-50
2021/08/20 05:40:05;;;;;;;3.51;2.91;;;;;;;21.36;73.46;100475.95;;;;-52
2021/08/20 05:43:05;;;;;;;4.12;3.10;;;;;;;21.36;73.52;100475.22;;;;-51
2021/08/20 05:46:05;;;;;;;3.32;2.86;;;;;;;21.36;73.60;100476.52;;;;-51
2021/08/20 05:49:07;;;;;;;3.37;3.01;;;;;;;21.36;73.73;100478.40;;;;-54
2021/08/20 05:52:05;;;;;;;4.83;3.16;;;;;;;21.38;73.75;100483.87;;;;-51
2021/08/20 05:55:05;;;;;;;4.61;3.24;;;;;;;21.38;73.70;100484.02;;;;-51
2021/08/20 05:58:06;;;;;;;4.30;3.06;;;;;;;21.39;73.79;100485.72;;;;-60
2021/08/20 06:01:05;;;;;;;4.43;3.18;;;;;;;21.43;73.60;100484.45;;;;-50
2021/08/20 06:04:06;;;;;;;3.40;3.01;;;;;;;21.44;73.51;100485.92;;;;-50
2021/08/20 06:07:05;;;;;;;4.66;2.86;;;;;;;21.45;73.37;100490.23;;;;-49
2021/08/20 06:10:05;;;;;;;3.56;2.93;;;;;;;21.45;73.16;100492.02;;;;-49
2021/08/20 06:13:05;;;;;;;4.13;2.84;;;;;;;21.47;73.05;100497.33;;;;-50
2021/08/20 06:16:06;;;;;;;3.25;2.73;;;;;;;21.48;72.95;100497.47;;;;-50
2021/08/20 06:19:05;;;;;;;3.22;2.92;;;;;;;21.47;72.96;100496.52;;;;-54
2021/08/20 06:22:05;;;;;;;3.48;2.89;;;;;;;21.47;72.93;100497.17;;;;-56
2021/08/20 06:25:05;;;;;;;3.35;2.80;;;;;;;21.47;72.84;100494.72;;;;-50
2021/08/20 06:28:05;;;;;;;3.12;2.71;;;;;;;21.47;72.84;100500.75;;;;-56
2021/08/20 06:31:05;;;;;;;3.13;2.76;;;;;;;21.47;72.82;100498.38;;;;-49
2021/08/20 06:34:05;;;;;;;4.95;2.57;;;;;;;21.46;72.79;100503.28;;;;-49
2021/08/20 06:37:05;;;;;;;3.18;2.80;;;;;;;21.46;72.72;100502.14;;;;-54
2021/08/20 06:40:05;;;;;;;2.86;2.60;;;;;;;21.46;72.66;100508.83;;;;-54
2021/08/20 06:43:05;;;;;;;3.13;2.67;;;;;;;21.46;72.63;100504.11;;;;-54
2021/08/20 06:46:05;;;;;;;3.36;2.57;;;;;;;21.46;72.58;100506.23;;;;-54
2021/08/20 06:49:07;;;;;;;3.01;2.72;;;;;;;21.46;72.60;100503.84;;;;-56
2021/08/20 06:52:05;;;;;;;3.07;2.75;;;;;;;21.46;72.55;100501.39;;;;-50
2021/08/20 06:55:05;;;;;;;2.93;2.65;;;;;;;21.46;72.53;100501.50;;;;-46
2021/08/20 06:58:05;;;;;;;2.96;2.70;;;;;;;21.45;72.54;100504.01;;;;-47
2021/08/20 07:01:05;;;;;;;2.73;2.53;;;;;;;21.45;72.48;100505.55;;;;-49
2021/08/20 07:04:05;;;;;;;3.18;2.68;;;;;;;21.45;72.44;100504.50;;;;-50
2021/08/20 07:07:05;;;;;;;3.91;2.77;;;;;;;21.46;72.42;100511.61;;;;-50
2021/08/20 07:10:05;;;;;;;2.73;2.53;;;;;;;21.45;72.41;100511.59;;;;-49
2021/08/20 07:13:05;;;;;;;2.61;2.41;;;;;;;21.45;72.44;100509.48;;;;-54
2021/08/20 07:16:05;;;;;;;3.13;2.60;;;;;;;21.44;72.42;100511.20;;;;-50
2021/08/20 07:19:05;;;;;;;2.75;2.53;;;;;;;21.45;72.40;100513.80;;;;-50
2021/08/20 07:22:05;;;;;;;3.57;2.61;;;;;;;21.45;72.39;100515.09;;;;-58
2021/08/20 07:25:05;;;;;;;5.09;2.57;;;;;;;21.47;72.41;100520.55;;;;-58
2021/08/20 07:28:05;;;;;;;3.74;2.53;;;;;;;21.49;72.49;100519.25;;;;-59
2021/08/20 07:31:05;;;;;;;3.41;2.44;;;;;;;21.51;72.61;100519.49;;;;-58
2021/08/20 07:34:05;;;;;;;2.74;2.37;;;;;;;21.52;72.69;100517.39;;;;-58
2021/08/20 07:37:05;;;;;;;2.89;2.40;;;;;;;21.54;72.73;100518.78;;;;-52
2021/08/20 07:40:05;;;;;;;2.77;2.47;;;;;;;21.56;72.78;100520.06;;;;-51
2021/08/20 07:43:05;;;;;;;2.82;2.51;;;;;;;21.56;72.66;100521.27;;;;-52
2021/08/20 07:46:05;;;;;;;3.13;2.26;;;;;;;21.56;72.67;100519.73;;;;-57
2021/08/20 07:49:05;;;;;;;3.61;2.54;;;;;;;21.56;72.62;100518.61;;;;-49
2021/08/20 07:52:05;;;;;;;3.30;2.40;;;;;;;21.57;72.51;100519.00;;;;-49
2021/08/20 07:55:05;;;;;;;2.59;2.39;;;;;;;21.56;72.49;100520.97;;;;-49
2021/08/20 07:58:05;;;;;;;3.85;2.29;;;;;;;21.56;72.52;100518.83;;;;-49
2021/08/20 08:01:05;;;;;;;3.14;2.69;;;;;;;21.57;72.49;100522.84;;;;-49
2021/08/20 08:04:05;;;;;;;3.66;2.52;;;;;;;21.56;72.40;100520.97;;;;-49
2021/08/20 08:07:05;;;;;;;3.74;2.43;;;;;;;21.57;72.51;100521.86;;;;-57
2021/08/20 08:10:05;;;;;;;3.01;2.25;;;;;;;21.59;72.52;100524.47;;;;-54
2021/08/20 08:13:05;;;;;;;2.96;2.44;;;;;;;21.61;72.55;100524.47;;;;-51
2021/08/20 08:16:05;;;;;;;2.51;2.31;;;;;;;21.62;72.59;100529.38;;;;-61
2021/08/20 08:19:05;;;;;;;4.02;2.53;;;;;;;21.64;72.61;100530.32;;;;-54
2021/08/20 08:22:05;;;;;;;4.98;2.47;;;;;;;21.65;72.80;100525.44;;;;-55
2021/08/20 08:25:05;;;;;;;2.53;2.15;;;;;;;21.67;72.76;100532.78;;;;-61
2021/08/20 08:28:05;;;;;;;2.69;2.45;;;;;;;21.68;72.79;100533.98;;;;-61
2021/08/20 08:31:05;;;;;;;2.71;2.40;;;;;;;21.69;72.80;100535.80;;;;-57
2021/08/20 08:34:07;;;;;;;5.05;2.37;;;;;;;21.70;72.72;100536.76;;;;-55
2021/08/20 08:37:05;;;;;;;3.55;2.38;;;;;;;21.70;72.76;100540.92;;;;-52
2021/08/20 08:40:05;;;;;;;2.71;2.20;;;;;;;21.72;72.73;100534.56;;;;-52
2021/08/20 08:43:05;;;;;;;3.13;2.38;;;;;;;21.73;72.63;100540.03;;;;-52
2021/08/20 08:46:09;;;;;;;2.36;2.16;;;;;;;21.73;72.77;100541.50;;;;-66
2021/08/20 08:49:06;;;;;;;2.80;2.21;;;;;;;21.74;72.71;100539.69;;;;-63
2021/08/20 08:52:05;;;;;;;4.23;2.52;;;;;;;21.75;72.66;100541.33;;;;-66
2021/08/20 08:55:05;;;;;;;3.84;2.19;;;;;;;21.75;72.67;100542.80;;;;-57
2021/08/20 08:58:05;;;;;;;3.35;2.30;;;;;;;21.76;72.64;100540.83;;;;-59
2021/08/20 09:01:05;;;;;;;4.58;2.20;;;;;;;21.77;72.71;100538.96;;;;-61
2021/08/20 09:04:05;;;;;;;4.69;2.40;;;;;;;21.78;72.62;100537.48;;;;-50
2021/08/20 09:07:05;;;;;;;8.29;2.52;;;;;;;21.78;72.59;100545.22;;;;-51
2021/08/20 09:10:06;;;;;;;2.48;2.28;;;;;;;21.79;72.67;100544.67;;;;-51
2021/08/20 09:13:07;;;;;;;4.29;2.38;;;;;;;21.80;72.59;100543.19;;;;-50
2021/08/20 09:16:06;;;;;;;3.39;2.29;;;;;;;21.82;72.55;100545.55;;;;-52
2021/08/20 09:19:05;;;;;;;6.48;2.41;;;;;;;21.82;72.53;100544.00;;;;-54
2021/08/20 09:22:05;;;;;;;3.48;2.31;;;;;;;21.83;72.53;100541.86;;;;-53
2021/08/20 09:25:05;;;;;;;2.58;2.06;;;;;;;21.83;72.50;100543.61;;;;-51
2021/08/20 09:28:05;;;;;;;4.62;2.29;;;;;;;21.84;72.49;100539.26;;;;-57
2021/08/20 09:31:05;;;;;;;3.00;2.19;;;;;;;21.85;72.49;100540.64;;;;-54
2021/08/20 09:34:05;;;;;;;4.16;2.29;;;;;;;21.85;72.42;100542.78;;;;-54
2021/08/20 09:37:05;;;;;;;4.33;2.30;;;;;;;21.85;72.42;100538.78;;;;-54
2021/08/20 09:40:08;;;;;;;6.16;2.09;;;;;;;21.86;72.42;100538.70;;;;-55
2021/08/20 09:43:08;;;;;;;2.93;2.17;;;;;;;21.87;72.47;100539.19;;;;-54
2021/08/20 09:46:05;;;;;;;3.14;2.25;;;;;;;21.88;72.40;100536.41;;;;-52
2021/08/20 09:49:05;;;;;;;4.57;2.41;;;;;;;21.88;72.42;100534.85;;;;-60
2021/08/20 09:52:05;;;;;;;3.29;2.15;;;;;;;21.88;72.39;100534.04;;;;-60
2021/08/20 09:55:05;;;;;;;3.40;2.05;;;;;;;21.89;72.38;100531.81;;;;-63
2021/08/20 09:58:07;;;;;;;3.53;2.27;;;;;;;21.89;72.36;100531.11;;;;-57
2021/08/20 10:01:05;;;;;;;3.78;1.95;;;;;;;21.89;72.38;100531.59;;;;-55
2021/08/20 10:04:06;;;;;;;5.73;2.33;;;;;;;21.88;72.31;100535.33;;;;-54
2021/08/20 10:07:05;;;;;;;7.71;2.39;;;;;;;21.87;72.32;100534.05;;;;-62
2021/08/20 10:10:05;;;;;;;3.31;2.19;;;;;;;21.88;72.26;100533.06;;;;-51
2021/08/20 10:13:05;;;;;;;3.83;2.25;;;;;;;21.88;72.23;100530.70;;;;-56
2021/08/20 10:16:06;;;;;;;3.63;1.91;;;;;;;21.86;72.26;100524.66;;;;-51
2021/08/20 10:19:06;;;;;;;3.79;2.30;;;;;;;21.86;72.17;100529.88;;;;-56
2021/08/20 10:22:05;;;;;;;4.84;2.39;;;;;;;21.86;72.17;100526.05;;;;-51
2021/08/20 10:25:05;;;;;;;3.11;2.17;;;;;;;21.85;72.10;100527.77;;;;-62
2021/08/20 10:28:06;;;;;;;2.55;2.11;;;;;;;21.85;72.06;100523.67;;;;-62
2021/08/20 10:31:05;;;;;;;2.99;2.10;;;;;;;21.84;72.03;100521.47;;;;-51
2021/08/20 10:34:05;;;;;;;2.87;2.18;;;;;;;21.84;72.04;100521.23;;;;-55
2021/08/20 10:37:06;;;;;;;4.45;2.12;;;;;;;21.83;71.98;100522.88;;;;-61
2021/08/20 10:40:05;;;;;;;4.02;2.32;;;;;;;21.82;71.95;100517.41;;;;-51
2021/08/20 10:43:06;;;;;;;4.05;2.39;;;;;;;21.84;71.96;100520.27;;;;-62
2021/08/20 10:46:05;;;;;;;3.15;2.33;;;;;;;21.85;71.99;100520.41;;;;-58
2021/08/20 10:49:05;;;;;;;5.33;2.29;;;;;;;21.86;71.97;100517.32;;;;-54
2021/08/20 10:52:06;;;;;;;7.53;2.33;;;;;;;21.87;71.97;100519.28;;;;-52
2021/08/20 10:55:05;;;;;;;4.24;2.31;;;;;;;21.88;71.98;100517.96;;;;-60
2021/08/20 10:58:05;;;;;;;2.99;2.02;;;;;;;21.89;71.95;100519.50;;;;-61
2021/08/20 11:01:05;;;;;;;4.20;2.23;;;;;;;21.90;72.03;100517.39;;;;-52
2021/08/20 11:04:05;;;;;;;5.52;2.21;;;;;;;21.91;71.98;100516.16;;;;-52
2021/08/20 11:07:05;;;;;;;6.29;2.21;;;;;;;21.91;72.01;100514.02;;;;-53
2021/08/20 11:10:05;;;;;;;4.11;2.17;;;;;;;21.92;72.04;100515.17;;;;-51
2021/08/20 11:13:05;;;;;;;3.47;2.15;;;;;;;21.92;72.04;100507.44;;;;-52
2021/08/20 11:16:05;;;;;;;3.74;2.09;;;;;;;21.93;72.05;100510.27;;;;-49
2021/08/20 11:19:05;;;;;;;7.73;2.20;;;;;;;21.93;71.96;100513.45;;;;-52
2021/08/20 11:22:05;;;;;;;4.03;2.28;;;;;;;21.92;71.97;100505.55;;;;-52
2021/08/20 11:25:05;;;;;;;3.27;2.13;;;;;;;21.92;71.93;100506.62;;;;-52
2021/08/20 11:28:05;;;;;;;2.79;2.18;;;;;;;21.91;71.89;100506.27;;;;-49
2021/08/20 11:31:06;;;;;;;5.35;2.15;;;;;;;21.90;71.87;100507.67;;;;-60
2021/08/20 11:34:06;;;;;;;4.09;2.27;;;;;;;21.90;71.88;100510.78;;;;-60
2021/08/20 11:37:05;;;;;;;4.68;2.24;;;;;;;21.89;71.81;100507.50;;;;-60
2021/08/20 11:40:07;;;;;;;3.16;2.11;;;;;;;21.89;71.81;100507.84;;;;-60
2021/08/20 11:43:05;;;;;;;2.49;2.04;;;;;;;21.88;71.81;100503.44;;;;-49
2021/08/20 11:46:05;;;;;;;4.72;2.27;;;;;;;21.88;71.72;100508.00;;;;-49
2021/08/20 11:49:05;;;;;;;3.63;2.19;;;;;;;21.88;71.69;100502.13;;;;-51
2021/08/20 11:52:07;;;;;;;2.54;2.07;;;;;;;21.88;71.73;100504.99;;;;-52
2021/08/20 11:55:05;;;;;;;3.24;2.20;;;;;;;21.87;71.73;100503.67;;;;-52
2021/08/20 11:58:05;;;;;;;3.21;2.20;;;;;;;21.86;71.68;100505.23;;;;-52
2021/08/20 12:01:05;;;;;;;3.53;2.07;;;;;;;21.87;71.69;100503.34;;;;-52
2021/08/20 12:04:05;;;;;;;2.71;2.22;;;;;;;21.86;71.68;100505.48;;;;-52
2021/08/20 12:07:05;;;;;;;2.82;2.23;;;;;;;21.85;71.67;100501.91;;;;-52
2021/08/20 12:10:05;;;;;;;3.14;2.19;;;;;;;21.85;71.66;100499.55;;;;-52
2021/08/20 12:13:05;;;;;;;2.21;2.00;;;;;;;21.85;71.66;100501.16;;;;-52
2021/08/20 12:16:05;;;;;;;3.85;2.09;;;;;;;21.85;71.66;100506.29;;;;-51
2021/08/20 12:19:05;;;;;;;3.23;1.94;;;;;;;21.85;71.64;100502.23;;;;-49
2021/08/20 12:22:05;;;;;;;3.17;2.25;;;;;;;21.87;71.71;100506.39;;;;-49
2021/08/20 12:25:06;;;;;;;3.12;2.31;;;;;;;21.88;71.73;100506.13;;;;-53
2021/08/20 12:28:05;;;;;;;3.73;2.03;;;;;;;21.89;71.77;100503.59;;;;-49
2021/08/20 12:31:05;;;;;;;3.83;2.01;;;;;;;21.89;71.78;100505.22;;;;-60
2021/08/20 12:34:05;;;;;;;3.53;2.19;;;;;;;21.90;71.79;100503.51;;;;-53
2021/08/20 12:37:05;;;;;;;3.97;2.31;;;;;;;21.90;71.94;100496.83;;;;-52
2021/08/20 12:40:06;;;;;;;4.19;2.28;;;;;;;21.90;72.04;100500.08;;;;-57
2021/08/20 12:43:05;;;;;;;6.02;2.50;;;;;;;21.93;72.29;100502.84;;;;-57
2021/08/20 12:46:05;;;;;;;4.43;2.34;;;;;;;21.95;72.16;100505.86;;;;-61
2021/08/20 12:49:05;;;;;;;4.72;2.46;;;;;;;21.96;72.14;100505.30;;;;-49
2021/08/20 12:52:05;;;;;;;5.89;2.40;;;;;;;21.96;72.13;100513.69;;;;-54
2021/08/20 12:55:05;;;;;;;8.08;2.57;;;;;;;21.96;72.06;100512.15;;;;-53
2021/08/20 12:58:05;;;;;;;5.61;2.39;;;;;;;21.97;72.08;100510.98;;;;-60
2021/08/20 13:01:07;;;;;;;4.89;2.38;;;;;;;21.97;72.11;100510.25;;;;-54
2021/08/20 13:04:05;;;;;;;4.97;2.58;;;;;;;21.98;72.04;100513.20;;;;-54
2021/08/20 13:07:05;;;;;;;10.15;2.57;;;;;;;21.99;72.00;100510.83;;;;-57
2021/08/20 13:10:05;;;;;;;7.03;2.50;;;;;;;21.99;72.02;100504.20;;;;-56
2021/08/20 13:13:05;;;;;;;5.24;2.50;;;;;;;22.00;72.04;100502.43;;;;-60
2021/08/20 13:16:05;;;;;;;5.27;2.39;;;;;;;22.00;72.04;100510.83;;;;-60
2021/08/20 13:19:05;;;;;;;4.43;2.27;;;;;;;22.01;72.04;100510.90;;;;-60
2021/08/20 13:22:05;;;;;;;5.95;2.43;;;;;;;22.02;72.05;100508.55;;;;-57
2021/08/20 13:25:05;;;;;;;4.68;2.51;;;;;;;22.03;72.07;100507.95;;;;-47
2021/08/20 13:28:05;;;;;;;6.96;2.34;;;;;;;22.04;72.04;100502.02;;;;-56
2021/08/20 13:31:05;;;;;;;10.25;2.57;;;;;;;22.04;71.97;100507.40;;;;-58
2021/08/20 13:34:05;;;;;;;7.17;2.49;;;;;;;22.05;72.00;100502.81;;;;-59
2021/08/20 13:37:05;;;;;;;7.50;2.46;;;;;;;22.05;71.93;100498.80;;;;-61
2021/08/20 13:40:05;;;;;;;5.36;2.40;;;;;;;22.06;71.97;100504.78;;;;-51
2021/08/20 13:43:09;;;;;;;4.45;2.40;;;;;;;22.06;71.95;100499.88;;;;-49
2021/08/20 13:46:06;;;;;;;4.62;2.32;;;;;;;22.06;71.97;100499.23;;;;-51
2021/08/20 13:49:05;;;;;;;4.62;2.27;;;;;;;22.06;71.98;100496.05;;;;-51
2021/08/20 13:52:05;;;;;;;4.21;2.27;;;;;;;22.06;71.92;100496.61;;;;-58
2021/08/20 13:55:05;;;;;;;3.81;2.15;;;;;;;22.07;71.98;100494.89;;;;-52
2021/08/20 13:58:05;;;;;;;4.09;2.50;;;;;;;22.08;71.94;100490.25;;;;-49
2021/08/20 14:01:05;;;;;;;4.21;2.20;;;;;;;22.08;71.93;100490.16;;;;-50
2021/08/20 14:04:05;;;;;;;6.01;2.44;;;;;;;22.08;71.95;100486.16;;;;-55
2021/08/20 14:07:05;;;;;;;3.66;2.19;;;;;;;22.09;71.94;100491.77;;;;-49
2021/08/20 14:10:05;;;;;;;5.37;2.22;;;;;;;22.10;71.93;100488.34;;;;-58
2021/08/20 14:13:05;;;;;;;3.64;2.21;;;;;;;22.10;71.93;100490.30;;;;-58
2021/08/20 14:16:05;;;;;;;4.85;2.15;;;;;;;22.10;71.99;100490.63;;;;-57
2021/08/20 14:19:05;;;;;;;3.70;2.27;;;;;;;22.10;71.97;100491.34;;;;-52
2021/08/20 14:22:06;;;;;;;3.09;2.29;;;;;;;22.10;71.95;100490.53;;;;-55
2021/08/20 14:25:05;;;;;;;3.61;2.15;;;;;;;22.10;71.99;100488.11;;;;-58
2021/08/20 14:28:05;;;;;;;3.99;2.21;;;;;;;22.12;71.98;100488.25;;;;-52
2021/08/20 14:31:05;;;;;;;3.69;2.20;;;;;;;22.11;71.90;100488.59;;;;-52
2021/08/20 14:34:05;;;;;;;3.22;2.13;;;;;;;22.13;71.96;100489.16;;;;-55
2021/08/20 14:37:05;;;;;;;3.75;2.15;;;;;;;22.12;71.90;100486.39;;;;-57
2021/08/20 14:40:05;;;;;;;5.43;2.21;;;;;;;22.13;71.95;100487.02;;;;-57
2021/08/20 14:43:05;;;;;;;6.49;2.05;;;;;;;22.13;71.93;100487.67;;;;-66
2021/08/20 14:46:05;;;;;;;3.70;1.97;;;;;;;22.13;71.97;100486.53;;;;-52
2021/08/20 14:49:05;;;;;;;2.57;1.95;;;;;;;22.14;71.98;100486.61;;;;-54
2021/08/20 14:52:05;;;;;;;3.07;2.18;;;;;;;22.15;71.96;100489.55;;;;-60
2021/08/20 14:55:05;;;;;;;8.47;2.29;;;;;;;22.13;71.82;100486.38;;;;-62
2021/08/20 14:58:05;;;;;;;4.25;2.15;;;;;;;22.12;71.91;100487.69;;;;-64
2021/08/20 15:01:05;;;;;;;4.35;2.17;;;;;;;22.12;71.73;100484.57;;;;-60
2021/08/20 15:04:05;;;;;;;4.47;2.45;;;;;;;22.12;71.75;100487.75;;;;-53
2021/08/20 15:07:05;;;;;;;6.82;2.27;;;;;;;22.10;71.85;100487.27;;;;-53
2021/08/20 15:10:05;;;;;;;3.28;2.12;;;;;;;22.09;71.85;100481.56;;;;-50
2021/08/20 15:13:06;;;;;;;5.74;2.26;;;;;;;22.10;71.79;100481.48;;;;-51
2021/08/20 15:16:05;;;;;;;4.91;2.10;;;;;;;22.09;71.76;100479.12;;;;-50
2021/08/20 15:19:05;;;;;;;3.96;2.27;;;;;;;22.08;71.74;100481.34;;;;-50
2021/08/20 15:22:05;;;;;;;6.52;2.15;;;;;;;22.08;71.74;100478.88;;;;-50
2021/08/20 15:25:05;;;;;;;5.57;2.03;;;;;;;22.07;71.68;100478.73;;;;-58
2021/08/20 15:28:06;;;;;;;5.94;2.01;;;;;;;22.07;71.76;100484.84;;;;-52
2021/08/20 15:31:05;;;;;;;5.27;2.13;;;;;;;22.09;71.76;100484.59;;;;-53
2021/08/20 15:34:05;;;;;;;7.69;2.31;;;;;;;22.10;71.91;100482.30;;;;-49
2021/08/20 15:37:05;;;;;;;8.42;2.49;;;;;;;22.10;71.92;100484.52;;;;-59
2021/08/20 15:40:05;;;;;;;8.63;2.36;;;;;;;22.11;71.93;100483.36;;;;-52
2021/08/20 15:43:05;;;;;;;5.95;2.33;;;;;;;22.11;71.99;100480.59;;;;-59
2021/08/20 15:46:05;;;;;;;7.47;2.35;;;;;;;22.12;72.00;100485.30;;;;-62
2021/08/20 15:49:05;;;;;;;7.07;2.15;;;;;;;22.13;72.00;100486.30;;;;-60
2021/08/20 15:52:05;;;;;;;7.52;2.37;;;;;;;22.11;71.93;100484.09;;;;-53
2021/08/20 15:55:05;;;;;;;6.16;2.45;;;;;;;22.12;71.99;100484.24;;;;-51
2021/08/20 15:58:05;;;;;;;7.59;2.10;;;;;;;22.11;71.95;100484.27;;;;-58
2021/08/20 16:01:05;;;;;;;6.19;2.37;;;;;;;22.11;71.97;100483.61;;;;-50
2021/08/20 16:04:05;;;;;;;6.81;2.15;;;;;;;22.10;71.88;100485.39;;;;-53
2021/08/20 16:07:07;;;;;;;5.85;2.22;;;;;;;22.10;71.86;100485.63;;;;-51
2021/08/20 16:10:05;;;;;;;6.17;2.34;;;;;;;22.09;71.82;100488.19;;;;-50
2021/08/20 16:13:05;;;;;;;4.19;2.26;;;;;;;22.08;71.80;100487.63;;;;-53
2021/08/20 16:16:05;;;;;;;5.05;2.13;;;;;;;22.07;71.81;100486.14;;;;-53
2021/08/20 16:19:10;;;;;;;7.25;2.10;;;;;;;22.07;71.76;100484.03;;;;-52
2021/08/20 16:22:05;;;;;;;5.67;2.17;;;;;;;22.06;71.74;100485.02;;;;-51
2021/08/20 16:25:05;;;;;;;5.64;2.35;;;;;;;22.06;71.73;100480.20;;;;-54
2021/08/20 16:28:05;;;;;;;6.53;2.35;;;;;;;22.05;71.73;100480.60;;;;-53
2021/08/20 16:31:05;;;;;;;5.89;2.29;;;;;;;22.06;71.73;100479.88;;;;-52
2021/08/20 16:34:05;;;;;;;3.35;2.11;;;;;;;22.04;71.73;100478.34;;;;-53
2021/08/20 16:37:05;;;;;;;4.53;2.26;;;;;;;22.04;71.68;100481.03;;;;-59
2021/08/20 16:40:05;;;;;;;4.39;2.07;;;;;;;22.04;71.68;100482.02;;;;-53
2021/08/20 16:43:05;;;;;;;5.17;2.33;;;;;;;22.03;71.71;100482.08;;;;-58